sensor_id;sensor_type;location;lat;lon;timestamp;P1;durP1;ratioP1;P2;durP2;ratioP2
35550;SDS011;21655;46.056;13.616;2022-11-15T00:00:46;23.73;;;15.30;;
35550;SDS011;21655;46.056;13.616;2022-11-15T00:03:13;23.65;;;14.40;;
35550;SDS011;21655;46.056;13.616;2022-11-15T00:05:40;21.92;;;14.48;;
35550;SDS011;21655;46.056;13.616;2022-11-15T00:08:05;24.45;;;14.48;;
35550;SDS011;21655;46.056;13.616;2022-11-15T00:10:30;26.10;;;15.82;;
35550;SDS011;21655;46.056;13.616;2022-11-15T00:12:56;24.25;;;15.10;;
35550;SDS011;21655;46.056;13.616;2022-11-15T00:15:21;24.92;;;14.95;;
35550;SDS011;21655;46.056;13.616;2022-11-15T00:17:49;22.80;;;15.10;;
35550;SDS011;21655;46.056;13.616;2022-11-15T00:20:16;23.10;;;13.75;;
35550;SDS011;21655;46.056;13.616;2022-11-15T00:22:42;25.65;;;13.77;;
35550;SDS011;21655;46.056;13.616;2022-11-15T00:25:07;22.17;;;14.35;;
35550;SDS011;21655;46.056;13.616;2022-11-15T00:27:33;21.50;;;14.13;;
35550;SDS011;21655;46.056;13.616;2022-11-15T00:29:58;25.45;;;14.48;;
35550;SDS011;21655;46.056;13.616;2022-11-15T00:32:24;22.17;;;13.73;;
35550;SDS011;21655;46.056;13.616;2022-11-15T00:34:50;20.33;;;13.65;;
35550;SDS011;21655;46.056;13.616;2022-11-15T00:37:16;25.75;;;13.98;;
35550;SDS011;21655;46.056;13.616;2022-11-15T00:39:41;22.52;;;14.68;;
35550;SDS011;21655;46.056;13.616;2022-11-15T00:42:07;22.38;;;13.70;;
35550;SDS011;21655;46.056;13.616;2022-11-15T00:44:32;22.17;;;14.40;;
35550;SDS011;21655;46.056;13.616;2022-11-15T00:46:57;21.23;;;13.48;;
35550;SDS011;21655;46.056;13.616;2022-11-15T00:49:23;26.73;;;14.30;;
35550;SDS011;21655;46.056;13.616;2022-11-15T00:51:48;22.85;;;13.95;;
35550;SDS011;21655;46.056;13.616;2022-11-15T00:54:14;24.40;;;14.45;;
35550;SDS011;21655;46.056;13.616;2022-11-15T00:56:39;22.63;;;14.65;;
35550;SDS011;21655;46.056;13.616;2022-11-15T00:59:04;24.92;;;14.70;;
35550;SDS011;21655;46.056;13.616;2022-11-15T01:01:30;23.38;;;14.25;;
35550;SDS011;21655;46.056;13.616;2022-11-15T01:03:55;19.48;;;13.48;;
35550;SDS011;21655;46.056;13.616;2022-11-15T01:06:21;24.55;;;14.43;;
35550;SDS011;21655;46.056;13.616;2022-11-15T01:08:46;23.50;;;14.43;;
35550;SDS011;21655;46.056;13.616;2022-11-15T01:11:12;22.27;;;14.27;;
35550;SDS011;21655;46.056;13.616;2022-11-15T01:13:38;24.42;;;14.27;;
35550;SDS011;21655;46.056;13.616;2022-11-15T01:16:14;21.20;;;13.68;;
35550;SDS011;21655;46.056;13.616;2022-11-15T01:18:45;21.55;;;13.75;;
35550;SDS011;21655;46.056;13.616;2022-11-15T01:21:12;20.80;;;13.18;;
35550;SDS011;21655;46.056;13.616;2022-11-15T01:23:39;20.98;;;13.43;;
35550;SDS011;21655;46.056;13.616;2022-11-15T01:26:06;21.67;;;13.05;;
35550;SDS011;21655;46.056;13.616;2022-11-15T01:28:34;19.40;;;13.30;;
35550;SDS011;21655;46.056;13.616;2022-11-15T01:31:01;21.48;;;13.65;;
35550;SDS011;21655;46.056;13.616;2022-11-15T01:33:28;22.92;;;13.65;;
35550;SDS011;21655;46.056;13.616;2022-11-15T01:35:55;24.75;;;14.05;;
35550;SDS011;21655;46.056;13.616;2022-11-15T01:38:21;24.95;;;15.00;;
35550;SDS011;21655;46.056;13.616;2022-11-15T01:40:47;25.55;;;15.30;;
35550;SDS011;21655;46.056;13.616;2022-11-15T01:43:20;21.35;;;13.52;;
35550;SDS011;21655;46.056;13.616;2022-11-15T01:46:00;22.30;;;13.80;;
35550;SDS011;21655;46.056;13.616;2022-11-15T01:48:33;25.67;;;13.80;;
35550;SDS011;21655;46.056;13.616;2022-11-15T01:51:00;23.17;;;15.25;;
35550;SDS011;21655;46.056;13.616;2022-11-15T01:53:29;23.10;;;14.60;;
35550;SDS011;21655;46.056;13.616;2022-11-15T01:55:57;20.92;;;13.63;;
35550;SDS011;21655;46.056;13.616;2022-11-15T01:58:26;20.73;;;13.18;;
35550;SDS011;21655;46.056;13.616;2022-11-15T02:00:54;21.17;;;13.23;;
35550;SDS011;21655;46.056;13.616;2022-11-15T02:03:20;22.88;;;13.60;;
35550;SDS011;21655;46.056;13.616;2022-11-15T02:05:51;25.10;;;13.70;;
35550;SDS011;21655;46.056;13.616;2022-11-15T02:08:18;21.55;;;12.88;;
35550;SDS011;21655;46.056;13.616;2022-11-15T02:10:46;23.67;;;13.98;;
35550;SDS011;21655;46.056;13.616;2022-11-15T02:13:13;24.33;;;14.57;;
35550;SDS011;21655;46.056;13.616;2022-11-15T02:15:44;22.13;;;13.85;;
35550;SDS011;21655;46.056;13.616;2022-11-15T02:18:32;23.27;;;14.48;;
35550;SDS011;21655;46.056;13.616;2022-11-15T02:28:43;24.38;;;13.82;;
35550;SDS011;21655;46.056;13.616;2022-11-15T02:37:36;22.98;;;13.07;;
35550;SDS011;21655;46.056;13.616;2022-11-15T02:40:13;24.95;;;14.25;;
35550;SDS011;21655;46.056;13.616;2022-11-15T02:42:59;21.10;;;13.20;;
35550;SDS011;21655;46.056;13.616;2022-11-15T02:45:50;24.40;;;14.75;;
35550;SDS011;21655;46.056;13.616;2022-11-15T02:48:18;26.05;;;14.43;;
35550;SDS011;21655;46.056;13.616;2022-11-15T02:50:47;22.38;;;14.25;;
35550;SDS011;21655;46.056;13.616;2022-11-15T02:53:14;31.17;;;16.77;;
35550;SDS011;21655;46.056;13.616;2022-11-15T02:55:41;29.38;;;15.70;;
35550;SDS011;21655;46.056;13.616;2022-11-15T03:00:54;25.83;;;14.70;;
35550;SDS011;21655;46.056;13.616;2022-11-15T03:12:20;23.88;;;13.95;;
35550;SDS011;21655;46.056;13.616;2022-11-15T03:14:58;23.60;;;13.75;;
35550;SDS011;21655;46.056;13.616;2022-11-15T03:17:29;25.40;;;13.75;;
35550;SDS011;21655;46.056;13.616;2022-11-15T03:19:59;20.55;;;12.68;;
35550;SDS011;21655;46.056;13.616;2022-11-15T03:22:29;21.95;;;12.57;;
35550;SDS011;21655;46.056;13.616;2022-11-15T03:25:02;23.55;;;13.68;;
35550;SDS011;21655;46.056;13.616;2022-11-15T03:27:35;21.38;;;12.57;;
35550;SDS011;21655;46.056;13.616;2022-11-15T03:30:05;19.85;;;13.00;;
35550;SDS011;21655;46.056;13.616;2022-11-15T03:32:37;18.88;;;12.27;;
35550;SDS011;21655;46.056;13.616;2022-11-15T03:35:08;26.42;;;13.48;;
35550;SDS011;21655;46.056;13.616;2022-11-15T03:37:58;22.38;;;12.25;;
35550;SDS011;21655;46.056;13.616;2022-11-15T03:40:35;23.13;;;12.98;;
35550;SDS011;21655;46.056;13.616;2022-11-15T03:43:10;22.23;;;13.65;;
35550;SDS011;21655;46.056;13.616;2022-11-15T03:45:47;28.58;;;12.77;;
35550;SDS011;21655;46.056;13.616;2022-11-15T03:48:22;20.80;;;12.98;;
35550;SDS011;21655;46.056;13.616;2022-11-15T03:50:52;20.83;;;13.00;;
35550;SDS011;21655;46.056;13.616;2022-11-15T03:53:18;20.92;;;12.77;;
35550;SDS011;21655;46.056;13.616;2022-11-15T03:55:44;20.45;;;12.02;;
35550;SDS011;21655;46.056;13.616;2022-11-15T03:58:09;22.13;;;13.07;;
35550;SDS011;21655;46.056;13.616;2022-11-15T04:00:35;21.55;;;13.07;;
35550;SDS011;21655;46.056;13.616;2022-11-15T04:03:00;23.52;;;12.77;;
35550;SDS011;21655;46.056;13.616;2022-11-15T04:05:25;26.02;;;12.77;;
35550;SDS011;21655;46.056;13.616;2022-11-15T04:07:51;18.90;;;12.20;;
35550;SDS011;21655;46.056;13.616;2022-11-15T04:10:16;20.35;;;12.73;;
35550;SDS011;21655;46.056;13.616;2022-11-15T04:12:43;19.52;;;12.02;;
35550;SDS011;21655;46.056;13.616;2022-11-15T04:15:13;19.48;;;11.88;;
35550;SDS011;21655;46.056;13.616;2022-11-15T04:17:43;20.95;;;11.93;;
35550;SDS011;21655;46.056;13.616;2022-11-15T04:20:13;18.75;;;12.18;;
35550;SDS011;21655;46.056;13.616;2022-11-15T04:23:03;19.98;;;11.73;;
35550;SDS011;21655;46.056;13.616;2022-11-15T04:25:52;19.77;;;11.70;;
35550;SDS011;21655;46.056;13.616;2022-11-15T04:28:19;17.95;;;11.10;;
35550;SDS011;21655;46.056;13.616;2022-11-15T04:30:45;19.63;;;12.02;;
35550;SDS011;21655;46.056;13.616;2022-11-15T04:33:10;17.40;;;11.10;;
35550;SDS011;21655;46.056;13.616;2022-11-15T04:35:36;20.23;;;12.05;;
35550;SDS011;21655;46.056;13.616;2022-11-15T04:38:03;20.55;;;12.50;;
35550;SDS011;21655;46.056;13.616;2022-11-15T04:40:29;24.05;;;11.73;;
35550;SDS011;21655;46.056;13.616;2022-11-15T04:42:55;18.88;;;11.90;;
35550;SDS011;21655;46.056;13.616;2022-11-15T04:45:21;18.63;;;11.77;;
35550;SDS011;21655;46.056;13.616;2022-11-15T04:47:46;21.73;;;12.13;;
35550;SDS011;21655;46.056;13.616;2022-11-15T04:50:12;19.15;;;11.55;;
35550;SDS011;21655;46.056;13.616;2022-11-15T04:52:40;18.83;;;10.45;;
35550;SDS011;21655;46.056;13.616;2022-11-15T04:55:07;21.95;;;11.40;;
35550;SDS011;21655;46.056;13.616;2022-11-15T04:57:33;20.10;;;11.77;;
35550;SDS011;21655;46.056;13.616;2022-11-15T04:59:58;17.17;;;10.60;;
35550;SDS011;21655;46.056;13.616;2022-11-15T05:02:24;19.50;;;10.50;;
35550;SDS011;21655;46.056;13.616;2022-11-15T05:05:09;20.13;;;10.95;;
35550;SDS011;21655;46.056;13.616;2022-11-15T05:07:35;17.40;;;11.15;;
35550;SDS011;21655;46.056;13.616;2022-11-15T05:10:00;17.98;;;11.48;;
35550;SDS011;21655;46.056;13.616;2022-11-15T05:12:25;21.95;;;12.05;;
35550;SDS011;21655;46.056;13.616;2022-11-15T05:14:52;25.77;;;11.98;;
35550;SDS011;21655;46.056;13.616;2022-11-15T05:17:19;19.77;;;12.07;;
35550;SDS011;21655;46.056;13.616;2022-11-15T05:19:50;17.60;;;10.15;;
35550;SDS011;21655;46.056;13.616;2022-11-15T05:22:17;18.27;;;11.95;;
35550;SDS011;21655;46.056;13.616;2022-11-15T05:24:42;42.60;;;25.00;;
35550;SDS011;21655;46.056;13.616;2022-11-15T05:27:08;20.48;;;11.18;;
35550;SDS011;21655;46.056;13.616;2022-11-15T05:29:33;22.58;;;12.70;;
35550;SDS011;21655;46.056;13.616;2022-11-15T05:31:59;22.73;;;12.55;;
35550;SDS011;21655;46.056;13.616;2022-11-15T05:34:24;17.95;;;11.23;;
35550;SDS011;21655;46.056;13.616;2022-11-15T05:36:51;27.30;;;15.38;;
35550;SDS011;21655;46.056;13.616;2022-11-15T05:39:17;19.52;;;12.43;;
35550;SDS011;21655;46.056;13.616;2022-11-15T05:41:44;21.67;;;12.52;;
35550;SDS011;21655;46.056;13.616;2022-11-15T05:44:14;22.05;;;12.68;;
35550;SDS011;21655;46.056;13.616;2022-11-15T05:46:43;25.02;;;13.35;;
35550;SDS011;21655;46.056;13.616;2022-11-15T05:49:11;23.70;;;13.23;;
35550;SDS011;21655;46.056;13.616;2022-11-15T05:51:40;23.25;;;11.10;;
35550;SDS011;21655;46.056;13.616;2022-11-15T05:54:09;19.35;;;11.15;;
35550;SDS011;21655;46.056;13.616;2022-11-15T05:56:35;21.92;;;11.50;;
35550;SDS011;21655;46.056;13.616;2022-11-15T05:59:01;20.02;;;10.98;;
35550;SDS011;21655;46.056;13.616;2022-11-15T06:01:27;24.45;;;11.63;;
35550;SDS011;21655;46.056;13.616;2022-11-15T06:03:53;20.58;;;12.15;;
35550;SDS011;21655;46.056;13.616;2022-11-15T06:06:18;20.48;;;12.20;;
35550;SDS011;21655;46.056;13.616;2022-11-15T06:08:44;25.48;;;12.68;;
35550;SDS011;21655;46.056;13.616;2022-11-15T06:11:09;23.92;;;12.18;;
35550;SDS011;21655;46.056;13.616;2022-11-15T06:13:34;22.88;;;13.65;;
35550;SDS011;21655;46.056;13.616;2022-11-15T06:16:00;16.48;;;11.27;;
35550;SDS011;21655;46.056;13.616;2022-11-15T06:18:26;17.85;;;11.60;;
35550;SDS011;21655;46.056;13.616;2022-11-15T06:20:51;24.88;;;11.68;;
35550;SDS011;21655;46.056;13.616;2022-11-15T06:23:17;21.13;;;11.20;;
35550;SDS011;21655;46.056;13.616;2022-11-15T06:25:42;21.98;;;11.90;;
35550;SDS011;21655;46.056;13.616;2022-11-15T06:28:08;20.60;;;12.20;;
35550;SDS011;21655;46.056;13.616;2022-11-15T06:30:33;20.42;;;11.18;;
35550;SDS011;21655;46.056;13.616;2022-11-15T06:33:00;25.20;;;12.52;;
35550;SDS011;21655;46.056;13.616;2022-11-15T06:35:29;17.48;;;10.90;;
35550;SDS011;21655;46.056;13.616;2022-11-15T06:38:01;19.05;;;12.32;;
35550;SDS011;21655;46.056;13.616;2022-11-15T06:40:28;22.15;;;12.07;;
35550;SDS011;21655;46.056;13.616;2022-11-15T06:43:00;25.63;;;13.50;;
35550;SDS011;21655;46.056;13.616;2022-11-15T06:45:26;23.20;;;13.48;;
35550;SDS011;21655;46.056;13.616;2022-11-15T06:47:52;47.17;;;29.10;;
35550;SDS011;21655;46.056;13.616;2022-11-15T06:50:18;43.42;;;25.50;;
35550;SDS011;21655;46.056;13.616;2022-11-15T06:52:43;33.28;;;18.70;;
35550;SDS011;21655;46.056;13.616;2022-11-15T06:55:09;28.95;;;19.65;;
35550;SDS011;21655;46.056;13.616;2022-11-15T06:57:34;33.38;;;17.95;;
35550;SDS011;21655;46.056;13.616;2022-11-15T07:00:00;82.40;;;49.83;;
35550;SDS011;21655;46.056;13.616;2022-11-15T07:02:26;40.67;;;24.27;;
35550;SDS011;21655;46.056;13.616;2022-11-15T07:04:52;63.38;;;44.35;;
35550;SDS011;21655;46.056;13.616;2022-11-15T07:07:17;40.70;;;31.50;;
35550;SDS011;21655;46.056;13.616;2022-11-15T07:09:42;20.55;;;12.48;;
35550;SDS011;21655;46.056;13.616;2022-11-15T07:12:08;20.55;;;11.32;;
35550;SDS011;21655;46.056;13.616;2022-11-15T07:14:33;18.63;;;12.35;;
35550;SDS011;21655;46.056;13.616;2022-11-15T07:16:59;24.08;;;11.85;;
35550;SDS011;21655;46.056;13.616;2022-11-15T07:19:24;33.75;;;15.23;;
35550;SDS011;21655;46.056;13.616;2022-11-15T07:21:50;28.70;;;14.40;;
35550;SDS011;21655;46.056;13.616;2022-11-15T07:24:16;26.88;;;14.23;;
35550;SDS011;21655;46.056;13.616;2022-11-15T07:26:41;36.55;;;15.70;;
35550;SDS011;21655;46.056;13.616;2022-11-15T07:29:06;28.48;;;16.27;;
35550;SDS011;21655;46.056;13.616;2022-11-15T07:31:32;32.67;;;17.75;;
35550;SDS011;21655;46.056;13.616;2022-11-15T07:33:57;29.63;;;14.82;;
35550;SDS011;21655;46.056;13.616;2022-11-15T07:36:23;29.70;;;14.88;;
35550;SDS011;21655;46.056;13.616;2022-11-15T07:38:48;28.25;;;16.00;;
35550;SDS011;21655;46.056;13.616;2022-11-15T07:41:14;28.10;;;16.60;;
35550;SDS011;21655;46.056;13.616;2022-11-15T07:43:39;30.10;;;17.40;;
35550;SDS011;21655;46.056;13.616;2022-11-15T07:46:05;47.72;;;24.88;;
35550;SDS011;21655;46.056;13.616;2022-11-15T07:48:34;31.23;;;15.65;;
35550;SDS011;21655;46.056;13.616;2022-11-15T07:51:05;37.80;;;15.32;;
35550;SDS011;21655;46.056;13.616;2022-11-15T07:53:31;29.80;;;14.25;;
35550;SDS011;21655;46.056;13.616;2022-11-15T07:55:56;23.40;;;14.18;;
35550;SDS011;21655;46.056;13.616;2022-11-15T07:58:22;25.08;;;13.65;;
35550;SDS011;21655;46.056;13.616;2022-11-15T08:00:47;24.27;;;14.07;;
35550;SDS011;21655;46.056;13.616;2022-11-15T08:03:13;23.30;;;14.00;;
35550;SDS011;21655;46.056;13.616;2022-11-15T08:05:41;27.67;;;14.25;;
35550;SDS011;21655;46.056;13.616;2022-11-15T08:08:07;23.58;;;14.02;;
35550;SDS011;21655;46.056;13.616;2022-11-15T08:10:36;29.02;;;14.95;;
35550;SDS011;21655;46.056;13.616;2022-11-15T08:13:03;24.35;;;14.40;;
35550;SDS011;21655;46.056;13.616;2022-11-15T08:15:31;19.60;;;12.27;;
35550;SDS011;21655;46.056;13.616;2022-11-15T08:17:58;25.15;;;13.18;;
35550;SDS011;21655;46.056;13.616;2022-11-15T08:20:26;23.50;;;12.48;;
35550;SDS011;21655;46.056;13.616;2022-11-15T08:22:56;23.73;;;12.73;;
35550;SDS011;21655;46.056;13.616;2022-11-15T08:25:22;26.50;;;12.63;;
35550;SDS011;21655;46.056;13.616;2022-11-15T08:27:51;25.67;;;13.43;;
35550;SDS011;21655;46.056;13.616;2022-11-15T08:30:18;23.05;;;13.57;;
35550;SDS011;21655;46.056;13.616;2022-11-15T08:32:43;25.48;;;14.32;;
35550;SDS011;21655;46.056;13.616;2022-11-15T08:35:09;24.52;;;13.90;;
35550;SDS011;21655;46.056;13.616;2022-11-15T08:37:35;21.40;;;13.95;;
35550;SDS011;21655;46.056;13.616;2022-11-15T08:40:01;17.95;;;12.25;;
35550;SDS011;21655;46.056;13.616;2022-11-15T08:42:26;26.45;;;12.63;;
35550;SDS011;21655;46.056;13.616;2022-11-15T08:44:51;18.90;;;12.18;;
35550;SDS011;21655;46.056;13.616;2022-11-15T08:47:17;23.98;;;13.13;;
35550;SDS011;21655;46.056;13.616;2022-11-15T08:49:42;21.17;;;12.40;;
35550;SDS011;21655;46.056;13.616;2022-11-15T08:52:08;23.55;;;13.15;;
35550;SDS011;21655;46.056;13.616;2022-11-15T08:54:33;25.38;;;13.15;;
35550;SDS011;21655;46.056;13.616;2022-11-15T08:56:58;23.92;;;12.68;;
35550;SDS011;21655;46.056;13.616;2022-11-15T08:59:24;20.77;;;11.40;;
35550;SDS011;21655;46.056;13.616;2022-11-15T09:01:49;18.08;;;10.93;;
35550;SDS011;21655;46.056;13.616;2022-11-15T09:04:15;16.55;;;11.07;;
35550;SDS011;21655;46.056;13.616;2022-11-15T09:06:40;23.75;;;12.15;;
35550;SDS011;21655;46.056;13.616;2022-11-15T09:09:06;21.25;;;11.80;;
35550;SDS011;21655;46.056;13.616;2022-11-15T09:11:31;24.88;;;12.05;;
35550;SDS011;21655;46.056;13.616;2022-11-15T09:13:57;26.35;;;12.77;;
35550;SDS011;21655;46.056;13.616;2022-11-15T09:16:22;19.48;;;12.90;;
35550;SDS011;21655;46.056;13.616;2022-11-15T09:18:47;21.88;;;12.82;;
35550;SDS011;21655;46.056;13.616;2022-11-15T09:21:13;21.30;;;13.07;;
35550;SDS011;21655;46.056;13.616;2022-11-15T09:23:39;21.90;;;13.15;;
35550;SDS011;21655;46.056;13.616;2022-11-15T09:26:05;23.60;;;12.45;;
35550;SDS011;21655;46.056;13.616;2022-11-15T09:28:31;20.13;;;12.13;;
35550;SDS011;21655;46.056;13.616;2022-11-15T09:30:58;19.15;;;11.95;;
35550;SDS011;21655;46.056;13.616;2022-11-15T09:33:25;18.33;;;11.45;;
35550;SDS011;21655;46.056;13.616;2022-11-15T09:35:50;21.75;;;11.57;;
35550;SDS011;21655;46.056;13.616;2022-11-15T09:38:16;18.58;;;11.57;;
35550;SDS011;21655;46.056;13.616;2022-11-15T09:40:42;18.08;;;11.90;;
35550;SDS011;21655;46.056;13.616;2022-11-15T09:43:11;19.85;;;12.45;;
35550;SDS011;21655;46.056;13.616;2022-11-15T09:45:57;21.95;;;12.13;;
35550;SDS011;21655;46.056;13.616;2022-11-15T09:51:53;27.00;;;12.52;;
35550;SDS011;21655;46.056;13.616;2022-11-15T09:54:35;19.17;;;11.48;;
35550;SDS011;21655;46.056;13.616;2022-11-15T09:57:27;16.98;;;10.95;;
35550;SDS011;21655;46.056;13.616;2022-11-15T10:05:22;15.00;;;8.95;;
35550;SDS011;21655;46.056;13.616;2022-11-15T10:07:55;13.65;;;9.15;;
35550;SDS011;21655;46.056;13.616;2022-11-15T10:10:48;16.88;;;9.13;;
35550;SDS011;21655;46.056;13.616;2022-11-15T10:13:19;13.60;;;8.82;;
35550;SDS011;21655;46.056;13.616;2022-11-15T10:15:51;12.50;;;8.88;;
35550;SDS011;21655;46.056;13.616;2022-11-15T10:18:25;19.35;;;9.25;;
35550;SDS011;21655;46.056;13.616;2022-11-15T10:24:23;15.05;;;7.30;;
35550;SDS011;21655;46.056;13.616;2022-11-15T10:26:53;12.75;;;7.45;;
35550;SDS011;21655;46.056;13.616;2022-11-15T10:29:19;12.27;;;7.40;;
35550;SDS011;21655;46.056;13.616;2022-11-15T10:31:45;10.35;;;6.93;;
35550;SDS011;21655;46.056;13.616;2022-11-15T10:34:23;9.05;;;6.55;;
35550;SDS011;21655;46.056;13.616;2022-11-15T10:36:56;9.70;;;6.03;;
35550;SDS011;21655;46.056;13.616;2022-11-15T10:39:24;8.88;;;6.28;;
35550;SDS011;21655;46.056;13.616;2022-11-15T10:41:50;8.15;;;6.00;;
35550;SDS011;21655;46.056;13.616;2022-11-15T10:46:41;8.55;;;5.28;;
35550;SDS011;21655;46.056;13.616;2022-11-15T10:51:44;5.93;;;4.30;;
35550;SDS011;21655;46.056;13.616;2022-11-15T10:54:17;7.75;;;4.32;;
35550;SDS011;21655;46.056;13.616;2022-11-15T10:56:50;7.65;;;4.93;;
35550;SDS011;21655;46.056;13.616;2022-11-15T10:59:20;11.00;;;5.60;;
35550;SDS011;21655;46.056;13.616;2022-11-15T11:01:52;8.70;;;6.10;;
35550;SDS011;21655;46.056;13.616;2022-11-15T11:04:18;8.43;;;5.90;;
35550;SDS011;21655;46.056;13.616;2022-11-15T11:11:52;6.57;;;4.43;;
35550;SDS011;21655;46.056;13.616;2022-11-15T11:16:49;5.50;;;3.55;;
35550;SDS011;21655;46.056;13.616;2022-11-15T11:24:39;5.45;;;3.40;;
35550;SDS011;21655;46.056;13.616;2022-11-15T11:27:26;5.40;;;3.55;;
35550;SDS011;21655;46.056;13.616;2022-11-15T11:30:20;5.22;;;3.20;;
35550;SDS011;21655;46.056;13.616;2022-11-15T11:46:35;8.18;;;3.35;;
35550;SDS011;21655;46.056;13.616;2022-11-15T11:49:09;4.47;;;3.40;;
35550;SDS011;21655;46.056;13.616;2022-11-15T11:57:00;5.10;;;3.65;;
35550;SDS011;21655;46.056;13.616;2022-11-15T12:02:31;5.00;;;3.50;;
35550;SDS011;21655;46.056;13.616;2022-11-15T12:08:09;7.25;;;3.17;;
35550;SDS011;21655;46.056;13.616;2022-11-15T12:10:43;7.78;;;3.25;;
35550;SDS011;21655;46.056;13.616;2022-11-15T12:13:18;6.75;;;2.90;;
35550;SDS011;21655;46.056;13.616;2022-11-15T12:15:50;6.50;;;2.97;;
35550;SDS011;21655;46.056;13.616;2022-11-15T12:18:24;6.90;;;3.13;;
35550;SDS011;21655;46.056;13.616;2022-11-15T12:21:00;7.85;;;4.30;;
35550;SDS011;21655;46.056;13.616;2022-11-15T12:23:32;7.53;;;3.10;;
35550;SDS011;21655;46.056;13.616;2022-11-15T12:28:35;7.32;;;3.30;;
35550;SDS011;21655;46.056;13.616;2022-11-15T12:31:23;5.05;;;3.00;;
35550;SDS011;21655;46.056;13.616;2022-11-15T12:33:56;6.13;;;3.67;;
35550;SDS011;21655;46.056;13.616;2022-11-15T12:38:55;4.47;;;2.90;;
35550;SDS011;21655;46.056;13.616;2022-11-15T12:41:26;5.00;;;3.03;;
35550;SDS011;21655;46.056;13.616;2022-11-15T12:43:56;4.80;;;3.20;;
35550;SDS011;21655;46.056;13.616;2022-11-15T12:46:59;6.25;;;3.30;;
35550;SDS011;21655;46.056;13.616;2022-11-15T13:02:41;7.05;;;3.80;;
35550;SDS011;21655;46.056;13.616;2022-11-15T13:22:44;9.57;;;5.00;;
35550;SDS011;21655;46.056;13.616;2022-11-15T13:28:18;12.00;;;6.35;;
35550;SDS011;21655;46.056;13.616;2022-11-15T13:33:16;11.95;;;6.70;;
35550;SDS011;21655;46.056;13.616;2022-11-15T13:35:45;8.18;;;5.75;;
35550;SDS011;21655;46.056;13.616;2022-11-15T13:41:09;13.10;;;6.60;;
35550;SDS011;21655;46.056;13.616;2022-11-15T13:43:45;10.77;;;6.40;;
35550;SDS011;21655;46.056;13.616;2022-11-15T13:49:09;10.75;;;5.78;;
35550;SDS011;21655;46.056;13.616;2022-11-15T13:54:33;12.10;;;6.00;;
35550;SDS011;21655;46.056;13.616;2022-11-15T13:59:31;11.48;;;7.82;;
35550;SDS011;21655;46.056;13.616;2022-11-15T14:02:11;17.30;;;8.73;;
35550;SDS011;21655;46.056;13.616;2022-11-15T14:04:39;22.17;;;11.90;;
35550;SDS011;21655;46.056;13.616;2022-11-15T14:07:17;17.80;;;11.57;;
35550;SDS011;21655;46.056;13.616;2022-11-15T14:09:50;16.50;;;8.70;;
35550;SDS011;21655;46.056;13.616;2022-11-15T14:12:27;13.30;;;8.93;;
35550;SDS011;21655;46.056;13.616;2022-11-15T14:14:55;15.30;;;9.13;;
35550;SDS011;21655;46.056;13.616;2022-11-15T14:17:32;15.38;;;9.38;;
35550;SDS011;21655;46.056;13.616;2022-11-15T14:20:00;14.07;;;8.32;;
35550;SDS011;21655;46.056;13.616;2022-11-15T14:22:26;15.27;;;8.55;;
35550;SDS011;21655;46.056;13.616;2022-11-15T14:28:07;18.55;;;8.50;;
35550;SDS011;21655;46.056;13.616;2022-11-15T14:30:39;23.10;;;11.57;;
35550;SDS011;21655;46.056;13.616;2022-11-15T14:33:19;35.65;;;16.85;;
35550;SDS011;21655;46.056;13.616;2022-11-15T14:35:44;19.92;;;10.55;;
35550;SDS011;21655;46.056;13.616;2022-11-15T14:38:10;19.33;;;12.55;;
35550;SDS011;21655;46.056;13.616;2022-11-15T14:40:35;21.75;;;11.77;;
35550;SDS011;21655;46.056;13.616;2022-11-15T14:43:11;18.80;;;10.38;;
35550;SDS011;21655;46.056;13.616;2022-11-15T14:45:37;15.45;;;9.65;;
35550;SDS011;21655;46.056;13.616;2022-11-15T14:48:03;14.15;;;10.20;;
35550;SDS011;21655;46.056;13.616;2022-11-15T14:50:29;18.08;;;10.45;;
35550;SDS011;21655;46.056;13.616;2022-11-15T14:52:55;16.75;;;11.90;;
35550;SDS011;21655;46.056;13.616;2022-11-15T14:55:25;20.67;;;13.63;;
35550;SDS011;21655;46.056;13.616;2022-11-15T14:57:53;23.05;;;12.88;;
35550;SDS011;21655;46.056;13.616;2022-11-15T15:00:19;20.25;;;12.25;;
35550;SDS011;21655;46.056;13.616;2022-11-15T15:02:46;22.65;;;13.45;;
35550;SDS011;21655;46.056;13.616;2022-11-15T15:05:19;21.17;;;13.07;;
35550;SDS011;21655;46.056;13.616;2022-11-15T15:07:47;22.08;;;13.50;;
35550;SDS011;21655;46.056;13.616;2022-11-15T15:10:13;24.75;;;14.07;;
35550;SDS011;21655;46.056;13.616;2022-11-15T15:12:40;23.83;;;15.27;;
35550;SDS011;21655;46.056;13.616;2022-11-15T15:15:05;25.67;;;15.63;;
35550;SDS011;21655;46.056;13.616;2022-11-15T15:17:36;27.67;;;16.80;;
35550;SDS011;21655;46.056;13.616;2022-11-15T15:20:01;25.90;;;18.17;;
35550;SDS011;21655;46.056;13.616;2022-11-15T15:22:27;29.48;;;18.63;;
35550;SDS011;21655;46.056;13.616;2022-11-15T15:24:54;28.20;;;18.63;;
35550;SDS011;21655;46.056;13.616;2022-11-15T15:27:19;30.15;;;19.45;;
35550;SDS011;21655;46.056;13.616;2022-11-15T15:29:45;30.40;;;19.45;;
35550;SDS011;21655;46.056;13.616;2022-11-15T15:32:10;31.60;;;20.33;;
35550;SDS011;21655;46.056;13.616;2022-11-15T15:34:36;35.38;;;21.17;;
35550;SDS011;21655;46.056;13.616;2022-11-15T15:39:47;40.97;;;24.45;;
35550;SDS011;21655;46.056;13.616;2022-11-15T15:42:13;39.83;;;25.88;;
35550;SDS011;21655;46.056;13.616;2022-11-15T15:44:38;37.08;;;24.85;;
35550;SDS011;21655;46.056;13.616;2022-11-15T15:47:08;45.15;;;29.15;;
35550;SDS011;21655;46.056;13.616;2022-11-15T15:49:39;67.53;;;38.35;;
35550;SDS011;21655;46.056;13.616;2022-11-15T15:52:05;47.20;;;31.65;;
35550;SDS011;21655;46.056;13.616;2022-11-15T15:54:30;39.72;;;26.52;;
35550;SDS011;21655;46.056;13.616;2022-11-15T15:56:56;43.15;;;27.38;;
35550;SDS011;21655;46.056;13.616;2022-11-15T15:59:21;39.00;;;25.65;;
35550;SDS011;21655;46.056;13.616;2022-11-15T16:01:46;39.78;;;27.55;;
35550;SDS011;21655;46.056;13.616;2022-11-15T16:04:12;34.47;;;22.58;;
35550;SDS011;21655;46.056;13.616;2022-11-15T16:06:38;29.50;;;18.48;;
35550;SDS011;21655;46.056;13.616;2022-11-15T16:09:06;35.08;;;23.75;;
35550;SDS011;21655;46.056;13.616;2022-11-15T16:11:33;32.45;;;22.33;;
35550;SDS011;21655;46.056;13.616;2022-11-15T16:13:59;30.85;;;19.63;;
35550;SDS011;21655;46.056;13.616;2022-11-15T16:16:24;45.33;;;26.88;;
35550;SDS011;21655;46.056;13.616;2022-11-15T16:18:50;31.58;;;19.48;;
35550;SDS011;21655;46.056;13.616;2022-11-15T16:21:15;30.10;;;19.05;;
35550;SDS011;21655;46.056;13.616;2022-11-15T16:23:40;25.02;;;17.38;;
35550;SDS011;21655;46.056;13.616;2022-11-15T16:26:12;24.17;;;16.83;;
35550;SDS011;21655;46.056;13.616;2022-11-15T16:28:44;25.13;;;16.77;;
35550;SDS011;21655;46.056;13.616;2022-11-15T16:31:11;20.95;;;15.05;;
35550;SDS011;21655;46.056;13.616;2022-11-15T16:33:37;23.98;;;15.43;;
35550;SDS011;21655;46.056;13.616;2022-11-15T16:36:04;22.85;;;15.23;;
35550;SDS011;21655;46.056;13.616;2022-11-15T16:38:36;29.90;;;19.77;;
35550;SDS011;21655;46.056;13.616;2022-11-15T16:41:04;34.75;;;24.33;;